createdAt,value
2017-08-26T00:00:16.750Z,731
2017-08-26T00:01:24.541Z,730
2017-08-26T00:02:32.025Z,731
2017-08-26T00:03:39.168Z,732
2017-08-26T00:04:46.656Z,733
2017-08-26T00:05:53.805Z,733
2017-08-26T00:07:01.638Z,733
2017-08-26T00:08:09.124Z,733
2017-08-26T00:09:16.600Z,733
2017-08-26T00:10:24.094Z,734
2017-08-26T00:11:31.241Z,735
2017-08-26T00:12:39.024Z,735
2017-08-26T00:13:46.525Z,736
2017-08-26T00:14:54.011Z,736
2017-08-26T00:16:01.488Z,737
2017-08-26T00:17:08.968Z,736
2017-08-26T00:18:16.751Z,737
2017-08-26T00:19:24.230Z,737
2017-08-26T00:20:31.715Z,738
2017-08-26T00:21:39.194Z,738
2017-08-26T00:22:46.348Z,737
2017-08-26T00:23:54.180Z,738
2017-08-26T00:25:01.666Z,738
2017-08-26T00:26:09.157Z,738
2017-08-26T00:27:16.636Z,737
2017-08-26T00:28:23.780Z,736
2017-08-26T00:29:31.615Z,736
2017-08-26T00:30:39.097Z,736
2017-08-26T00:31:46.576Z,737
2017-08-26T00:32:54.061Z,736
2017-08-26T00:34:01.543Z,736
2017-08-26T00:35:09.326Z,736
2017-08-26T00:36:16.812Z,735
2017-08-26T00:37:24.303Z,734
2017-08-26T00:38:31.790Z,734
2017-08-26T00:39:39.274Z,734
2017-08-26T00:40:47.059Z,733
2017-08-26T00:41:54.546Z,733
2017-08-26T00:43:01.703Z,731
2017-08-26T00:44:09.180Z,731
2017-08-26T00:45:16.671Z,731
2017-08-26T00:46:24.502Z,730
2017-08-26T00:47:31.649Z,730
2017-08-26T00:48:39.129Z,730
2017-08-26T00:49:46.609Z,728
2017-08-26T00:50:53.767Z,730
2017-08-26T00:52:01.596Z,731
2017-08-26T00:53:09.074Z,732
2017-08-26T00:54:16.554Z,733
2017-08-26T00:55:24.037Z,734
2017-08-26T00:56:31.512Z,736
2017-08-26T00:57:39.346Z,741
2017-08-26T00:58:46.829Z,742
2017-08-26T00:59:53.973Z,742
2017-08-26T01:01:01.452Z,742
2017-08-26T01:02:08.934Z,734
2017-08-26T01:03:16.766Z,734
2017-08-26T01:04:24.245Z,733
2017-08-26T01:05:31.726Z,733
2017-08-26T01:06:39.207Z,732
2017-08-26T01:07:46.691Z,732
2017-08-26T01:08:54.473Z,731
2017-08-26T01:10:01.625Z,732
2017-08-26T01:11:09.106Z,732
2017-08-26T01:12:16.587Z,732
2017-08-26T01:13:23.734Z,735
2017-08-26T01:14:31.560Z,731
2017-08-26T01:15:38.364Z,732
2017-08-26T01:16:45.847Z,735
2017-08-26T01:17:53.336Z,736
2017-08-26T01:19:00.815Z,736
2017-08-26T01:20:07.938Z,736
2017-08-26T01:21:15.420Z,739
2017-08-26T01:22:22.903Z,744
2017-08-26T01:23:30.387Z,743
2017-08-26T01:24:37.867Z,741
2017-08-26T01:25:45.698Z,743
2017-08-26T01:26:52.844Z,743
2017-08-26T01:28:00.328Z,744
2017-08-26T01:29:07.813Z,744
2017-08-26T01:30:15.295Z,745
2017-08-26T01:31:23.197Z,747
2017-08-26T01:32:30.677Z,748
2017-08-26T01:33:38.163Z,748
2017-08-26T01:34:45.646Z,748
2017-08-26T01:35:53.128Z,748
2017-08-26T01:37:00.958Z,748
2017-08-26T01:38:08.442Z,748
2017-08-26T01:39:15.926Z,747
2017-08-26T01:40:23.412Z,746
2017-08-26T01:41:30.887Z,746
2017-08-26T01:42:38.670Z,744
2017-08-26T01:43:46.148Z,744
2017-08-26T01:44:53.631Z,743
2017-08-26T01:46:01.115Z,743
2017-08-26T01:47:08.600Z,743
2017-08-26T01:48:16.062Z,743
2017-08-26T01:49:23.547Z,744
2017-08-26T01:50:31.022Z,744
2017-08-26T01:51:38.508Z,744
2017-08-26T01:52:45.988Z,746
2017-08-26T01:53:53.765Z,745
2017-08-26T01:55:01.248Z,746
2017-08-26T01:56:08.726Z,746
2017-08-26T01:57:16.209Z,747
2017-08-26T01:58:23.689Z,745
2017-08-26T01:59:31.520Z,745
2017-08-26T02:00:39.005Z,744
2017-08-26T02:01:46.484Z,746
2017-08-26T02:02:53.971Z,746
2017-08-26T02:04:01.447Z,747
2017-08-26T02:05:09.280Z,746
2017-08-26T02:06:16.768Z,746
2017-08-26T02:07:24.251Z,747
2017-08-26T02:08:31.734Z,748
2017-08-26T02:09:39.214Z,749
2017-08-26T02:10:47.042Z,751
2017-08-26T02:11:54.195Z,752
2017-08-26T02:13:01.683Z,752
2017-08-26T02:14:09.163Z,753
2017-08-26T02:15:16.647Z,753
2017-08-26T02:16:24.478Z,754
2017-08-26T02:17:31.959Z,755
2017-08-26T02:18:39.452Z,755
2017-08-26T02:19:46.930Z,756
2017-08-26T02:20:54.083Z,756
2017-08-26T02:22:01.589Z,756
2017-08-26T02:23:09.069Z,756
2017-08-26T02:24:16.548Z,757
2017-08-26T02:25:24.033Z,757
2017-08-26T02:26:31.512Z,757
2017-08-26T02:27:39.009Z,757
2017-08-26T02:28:46.489Z,757
2017-08-26T02:29:53.967Z,758
2017-08-26T02:31:01.450Z,758
2017-08-26T02:32:08.938Z,758
2017-08-26T02:33:16.833Z,758
2017-08-26T02:34:23.984Z,759
2017-08-26T02:35:31.462Z,760
2017-08-26T02:36:38.951Z,759
2017-08-26T02:37:46.448Z,759
2017-08-26T02:38:54.238Z,760
2017-08-26T02:40:01.727Z,760
2017-08-26T02:41:09.199Z,760
2017-08-26T02:42:16.345Z,761
2017-08-26T02:43:23.829Z,763
2017-08-26T02:44:31.613Z,762
2017-08-26T02:45:39.091Z,758
2017-08-26T02:46:46.577Z,758
2017-08-26T02:47:54.061Z,758
2017-08-26T02:49:01.207Z,758
2017-08-26T02:50:08.656Z,759
2017-08-26T02:51:15.801Z,757
2017-08-26T02:52:23.281Z,759
2017-08-26T02:53:30.429Z,759
2017-08-26T02:54:37.912Z,758
2017-08-26T02:55:45.701Z,761
2017-08-26T02:56:53.182Z,760
2017-08-26T02:58:00.328Z,760
2017-08-26T02:59:07.478Z,759
2017-08-26T03:00:14.618Z,760
2017-08-26T03:01:22.400Z,761
2017-08-26T03:02:29.889Z,761
2017-08-26T03:03:37.371Z,761
2017-08-26T03:04:44.861Z,761
2017-08-26T03:05:52.345Z,761
2017-08-26T03:07:00.120Z,761
2017-08-26T03:08:07.603Z,761
2017-08-26T03:09:15.082Z,761
2017-08-26T03:10:22.572Z,761
2017-08-26T03:11:30.056Z,762
2017-08-26T03:12:37.831Z,762
2017-08-26T03:13:45.333Z,761
2017-08-26T03:14:52.808Z,762
2017-08-26T03:16:00.312Z,762
2017-08-26T03:17:07.127Z,761
2017-08-26T03:18:14.905Z,761
2017-08-26T03:19:22.388Z,761
2017-08-26T03:20:29.873Z,761
2017-08-26T03:21:37.025Z,761
2017-08-26T03:22:44.504Z,761
2017-08-26T03:23:52.286Z,761
2017-08-26T03:24:59.767Z,760
2017-08-26T03:26:07.252Z,760
2017-08-26T03:27:14.733Z,760
2017-08-26T03:28:22.219Z,759
2017-08-26T03:29:30.002Z,759
2017-08-26T03:30:37.488Z,758
2017-08-26T03:31:45.006Z,758
2017-08-26T03:32:52.498Z,757
2017-08-26T03:33:59.984Z,756
2017-08-26T03:35:07.761Z,755
2017-08-26T03:36:15.246Z,754
2017-08-26T03:37:22.722Z,754
2017-08-26T03:38:29.873Z,753
2017-08-26T03:39:37.352Z,752
2017-08-26T03:40:44.831Z,752
2017-08-26T03:41:51.646Z,750
2017-08-26T03:42:59.124Z,749
2017-08-26T03:44:06.609Z,748
2017-08-26T03:45:14.397Z,747
2017-08-26T03:46:21.917Z,746
2017-08-26T03:47:29.401Z,745
2017-08-26T03:48:36.547Z,742
2017-08-26T03:49:44.029Z,741
2017-08-26T03:50:51.810Z,739
2017-08-26T03:51:58.984Z,737
2017-08-26T03:53:06.463Z,735
2017-08-26T03:54:13.616Z,739
2017-08-26T03:55:21.097Z,734
2017-08-26T03:56:28.880Z,733
2017-08-26T03:57:36.367Z,730
2017-08-26T03:58:43.844Z,726
2017-08-26T03:59:51.325Z,726
2017-08-26T04:00:58.811Z,727
2017-08-26T04:02:06.589Z,726
2017-08-26T04:03:14.077Z,726
2017-08-26T04:04:21.561Z,725
2017-08-26T04:05:28.715Z,725
2017-08-26T04:06:36.200Z,723
2017-08-26T04:07:43.680Z,724
2017-08-26T04:08:51.159Z,724
2017-08-26T04:09:58.315Z,724
2017-08-26T04:11:05.796Z,725
2017-08-26T04:12:13.285Z,725
2017-08-26T04:13:20.730Z,725
2017-08-26T04:14:28.205Z,725
2017-08-26T04:15:35.687Z,725
2017-08-26T04:16:42.853Z,726
2017-08-26T04:17:50.633Z,728
2017-08-26T04:18:58.113Z,728
2017-08-26T04:20:05.592Z,729
2017-08-26T04:21:13.068Z,734
2017-08-26T04:22:20.555Z,735
2017-08-26T04:23:28.339Z,734
2017-08-26T04:24:35.492Z,734
2017-08-26T04:25:42.640Z,734
2017-08-26T04:26:50.122Z,737
2017-08-26T04:27:57.277Z,737
2017-08-26T04:29:05.046Z,738
2017-08-26T04:30:12.533Z,739
2017-08-26T04:31:20.021Z,739
2017-08-26T04:32:27.509Z,739
2017-08-26T04:33:34.987Z,740
2017-08-26T04:34:42.781Z,742
2017-08-26T04:35:50.263Z,742
2017-08-26T04:36:57.752Z,744
2017-08-26T04:38:04.893Z,745
2017-08-26T04:39:12.376Z,745
2017-08-26T04:40:20.153Z,747
2017-08-26T04:41:27.631Z,747
2017-08-26T04:42:35.110Z,748
2017-08-26T04:43:42.588Z,749
2017-08-26T04:44:50.074Z,750
2017-08-26T04:45:57.562Z,752
2017-08-26T04:47:05.337Z,752
2017-08-26T04:48:27.403Z,753
2017-08-26T04:49:34.884Z,756
2017-08-26T04:50:42.364Z,756
2017-08-26T04:51:49.848Z,757
2017-08-26T04:52:57.626Z,757
2017-08-26T04:54:05.106Z,758
2017-08-26T04:55:12.587Z,759
2017-08-26T04:56:20.065Z,759
2017-08-26T04:57:27.547Z,761
2017-08-26T04:58:35.375Z,762
2017-08-26T04:59:42.857Z,761
2017-08-26T05:00:50.337Z,761
2017-08-26T05:01:57.819Z,761
2017-08-26T05:03:05.299Z,761
2017-08-26T05:04:12.780Z,761
2017-08-26T05:05:20.264Z,762
2017-08-26T05:06:27.740Z,761
2017-08-26T05:07:35.219Z,761
2017-08-26T05:08:42.715Z,763
2017-08-26T05:09:50.491Z,766
2017-08-26T05:10:57.636Z,768
2017-08-26T05:12:04.785Z,776
2017-08-26T05:13:11.937Z,777
2017-08-26T05:14:19.079Z,779
2017-08-26T05:15:26.814Z,779
2017-08-26T05:16:34.296Z,776
2017-08-26T05:17:41.460Z,776
2017-08-26T05:18:48.931Z,775
2017-08-26T05:19:56.086Z,773
2017-08-26T05:21:03.918Z,774
2017-08-26T05:22:11.070Z,774
2017-08-26T05:23:18.559Z,775
2017-08-26T05:24:25.693Z,775
2017-08-26T05:25:33.188Z,775
2017-08-26T05:26:41.018Z,774
2017-08-26T05:27:48.502Z,770
2017-08-26T05:28:55.670Z,769
2017-08-26T05:30:03.149Z,766
2017-08-26T05:31:10.634Z,763
2017-08-26T05:32:18.466Z,760
2017-08-26T05:33:25.951Z,759
2017-08-26T05:34:33.434Z,760
2017-08-26T05:35:40.916Z,757
2017-08-26T05:36:48.403Z,761
2017-08-26T05:37:56.180Z,762
2017-08-26T05:39:03.658Z,762
2017-08-26T05:40:11.132Z,763
2017-08-26T05:41:18.611Z,762
2017-08-26T05:42:25.764Z,762
2017-08-26T05:43:33.249Z,761
2017-08-26T05:44:40.723Z,761
2017-08-26T05:45:48.202Z,761
2017-08-26T05:46:55.683Z,762
2017-08-26T05:48:03.162Z,760
2017-08-26T05:49:10.898Z,761
2017-08-26T05:50:18.378Z,763
2017-08-26T05:51:25.858Z,763
2017-08-26T05:52:33.336Z,764
2017-08-26T05:53:40.817Z,765
2017-08-26T05:54:48.602Z,766
2017-08-26T05:55:56.097Z,766
2017-08-26T05:57:03.581Z,767
2017-08-26T05:58:11.071Z,768
2017-08-26T05:59:18.206Z,768
2017-08-26T06:00:25.702Z,770
2017-08-26T06:01:32.861Z,770
2017-08-26T06:02:40.361Z,771
2017-08-26T06:03:47.838Z,771
2017-08-26T06:04:55.321Z,771
2017-08-26T06:06:03.154Z,771
2017-08-26T06:07:10.636Z,772
2017-08-26T06:08:18.114Z,772
2017-08-26T06:09:25.602Z,772
2017-08-26T06:10:33.076Z,772
2017-08-26T06:11:40.904Z,773
2017-08-26T06:12:48.385Z,773
2017-08-26T06:13:55.867Z,774
2017-08-26T06:15:03.348Z,774
2017-08-26T06:16:10.832Z,774
2017-08-26T06:17:18.667Z,775
2017-08-26T06:18:25.812Z,776
2017-08-26T06:19:32.957Z,776
2017-08-26T06:20:40.106Z,776
2017-08-26T06:21:47.586Z,776
2017-08-26T06:22:55.067Z,778
2017-08-26T06:24:02.212Z,777
2017-08-26T06:25:09.696Z,778
2017-08-26T06:26:17.178Z,779
2017-08-26T06:27:24.665Z,779
2017-08-26T06:28:32.173Z,780
2017-08-26T06:29:39.883Z,780
2017-08-26T06:30:47.361Z,781
2017-08-26T06:31:54.843Z,781
2017-08-26T06:33:02.344Z,782
2017-08-26T06:34:10.172Z,783
2017-08-26T06:35:17.660Z,784
2017-08-26T06:36:25.151Z,784
2017-08-26T06:37:32.630Z,784
2017-08-26T06:38:40.129Z,785
2017-08-26T06:39:47.966Z,786
2017-08-26T06:40:55.448Z,786
2017-08-26T06:42:02.953Z,787
2017-08-26T06:43:10.628Z,788
2017-08-26T06:44:18.118Z,788
2017-08-26T06:45:25.268Z,788
2017-08-26T06:46:32.092Z,787
2017-08-26T06:47:39.577Z,788
2017-08-26T06:48:46.731Z,789
2017-08-26T06:49:54.561Z,789
2017-08-26T06:51:02.046Z,790
2017-08-26T06:52:09.528Z,789
2017-08-26T06:53:17.015Z,790
2017-08-26T06:54:24.500Z,791
2017-08-26T06:55:32.335Z,791
2017-08-26T06:56:39.820Z,792
2017-08-26T06:57:47.310Z,792
2017-08-26T06:58:54.786Z,792
2017-08-26T07:00:02.265Z,793
2017-08-26T07:01:10.096Z,793
2017-08-26T07:02:17.579Z,792
2017-08-26T07:03:25.062Z,793
2017-08-26T07:04:32.542Z,793
2017-08-26T07:05:39.691Z,793
2017-08-26T07:06:47.530Z,794
2017-08-26T07:07:55.011Z,794
2017-08-26T07:09:02.491Z,795
2017-08-26T07:10:09.976Z,795
2017-08-26T07:11:17.124Z,795
2017-08-26T07:12:24.626Z,795
2017-08-26T07:13:32.108Z,796
2017-08-26T07:14:39.590Z,797
2017-08-26T07:15:47.073Z,797
2017-08-26T07:16:54.565Z,798
2017-08-26T07:18:02.393Z,798
2017-08-26T07:19:09.879Z,798
2017-08-26T07:20:17.044Z,798
2017-08-26T07:21:24.523Z,799
2017-08-26T07:22:32.010Z,799
2017-08-26T07:23:39.508Z,800
2017-08-26T07:24:46.991Z,799
2017-08-26T07:25:54.473Z,799
2017-08-26T07:27:01.639Z,799
2017-08-26T07:28:09.123Z,800
2017-08-26T07:29:16.968Z,801
2017-08-26T07:30:24.441Z,801
2017-08-26T07:31:31.926Z,801
2017-08-26T07:32:39.413Z,801
2017-08-26T07:33:46.902Z,802
2017-08-26T07:34:54.731Z,802
2017-08-26T07:36:02.223Z,801
2017-08-26T07:37:09.704Z,801
2017-08-26T07:38:17.188Z,802
2017-08-26T07:39:24.677Z,801
2017-08-26T07:40:32.521Z,801
2017-08-26T07:41:40.004Z,802
2017-08-26T07:42:47.487Z,803
2017-08-26T07:43:54.972Z,803
2017-08-26T07:45:02.458Z,803
2017-08-26T07:46:10.241Z,803
2017-08-26T07:47:17.057Z,803
2017-08-26T07:48:24.541Z,804
2017-08-26T07:49:32.028Z,804
2017-08-26T07:50:39.521Z,805
2017-08-26T07:51:47.345Z,804
2017-08-26T07:52:54.825Z,806
2017-08-26T07:54:02.306Z,808
2017-08-26T07:55:09.457Z,806
2017-08-26T07:56:16.937Z,807
2017-08-26T07:57:24.774Z,807
2017-08-26T07:58:32.297Z,807
2017-08-26T07:59:39.785Z,808
2017-08-26T08:00:47.293Z,807
2017-08-26T08:01:54.442Z,807
2017-08-26T08:03:02.280Z,809
2017-08-26T08:04:09.758Z,808
2017-08-26T08:05:17.231Z,808
2017-08-26T08:06:24.722Z,808
2017-08-26T08:07:32.208Z,808
2017-08-26T08:08:40.040Z,809
2017-08-26T08:09:47.517Z,809
2017-08-26T08:10:54.680Z,810
2017-08-26T08:12:01.835Z,810
2017-08-26T08:13:09.323Z,811
2017-08-26T08:14:16.477Z,811
2017-08-26T08:15:23.960Z,811
2017-08-26T08:16:31.739Z,812
2017-08-26T08:17:39.221Z,812
2017-08-26T08:18:46.708Z,813
2017-08-26T08:19:54.190Z,813
2017-08-26T08:21:01.683Z,812
2017-08-26T08:22:09.476Z,814
2017-08-26T08:23:16.958Z,814
2017-08-26T08:24:24.446Z,813
2017-08-26T08:25:31.933Z,812
2017-08-26T08:26:39.421Z,811
2017-08-26T08:27:47.206Z,811
2017-08-26T08:28:54.691Z,811
2017-08-26T08:30:02.177Z,813
2017-08-26T08:31:09.663Z,813
2017-08-26T08:32:16.815Z,814
2017-08-26T08:33:24.302Z,814
2017-08-26T08:34:31.813Z,813
2017-08-26T08:35:39.298Z,813
2017-08-26T08:36:46.784Z,815
2017-08-26T08:37:53.929Z,814
2017-08-26T08:39:01.721Z,814
2017-08-26T08:40:08.878Z,814
2017-08-26T08:41:16.365Z,815
2017-08-26T08:42:23.851Z,815
2017-08-26T08:43:31.336Z,816
2017-08-26T08:44:39.122Z,815
2017-08-26T08:45:46.270Z,815
2017-08-26T08:46:53.758Z,816
2017-08-26T08:48:01.241Z,816
2017-08-26T08:49:08.726Z,815
2017-08-26T08:50:16.552Z,816
2017-08-26T08:51:24.034Z,817
2017-08-26T08:52:31.522Z,816
2017-08-26T08:53:39.009Z,815
2017-08-26T08:54:46.161Z,815
2017-08-26T08:55:53.642Z,816
2017-08-26T08:57:00.799Z,816
2017-08-26T08:58:08.285Z,815
2017-08-26T08:59:15.772Z,816
2017-08-26T09:00:23.556Z,817
2017-08-26T09:01:31.044Z,818
2017-08-26T09:02:38.188Z,817
2017-08-26T09:03:45.332Z,818
2017-08-26T09:04:52.821Z,818
2017-08-26T09:06:00.604Z,818
2017-08-26T09:07:08.093Z,817
2017-08-26T09:08:15.587Z,817
2017-08-26T09:09:23.069Z,817
2017-08-26T09:10:30.563Z,817
2017-08-26T09:11:38.348Z,816
2017-08-26T09:12:45.830Z,816
2017-08-26T09:13:53.315Z,815
2017-08-26T09:15:00.808Z,814
2017-08-26T09:16:08.298Z,815
2017-08-26T09:17:16.080Z,815
2017-08-26T09:18:23.566Z,816
2017-08-26T09:19:30.720Z,815
2017-08-26T09:20:38.207Z,814
2017-08-26T09:21:45.703Z,813
2017-08-26T09:22:53.157Z,815
2017-08-26T09:24:00.310Z,818
2017-08-26T09:25:07.803Z,816
2017-08-26T09:26:15.297Z,817
2017-08-26T09:27:22.779Z,819
2017-08-26T09:28:30.567Z,819
2017-08-26T09:29:38.062Z,820
2017-08-26T09:30:45.548Z,819
2017-08-26T09:31:53.033Z,819
2017-08-26T09:33:00.533Z,818
2017-08-26T09:34:07.992Z,818
2017-08-26T09:35:15.485Z,820
2017-08-26T09:36:22.963Z,820
2017-08-26T09:37:30.450Z,818
2017-08-26T09:38:37.948Z,817
2017-08-26T09:39:45.738Z,817
2017-08-26T09:40:53.218Z,817
2017-08-26T09:42:00.702Z,818
2017-08-26T09:43:08.208Z,820
2017-08-26T09:44:15.034Z,820
2017-08-26T09:45:37.426Z,823
2017-08-26T09:46:44.585Z,823
2017-08-26T09:47:51.740Z,823
2017-08-26T09:48:59.227Z,823
2017-08-26T09:50:06.710Z,823
2017-08-26T09:51:14.202Z,823
2017-08-26T09:52:21.680Z,823
2017-08-26T09:53:29.166Z,823
2017-08-26T09:54:36.652Z,823
2017-08-26T09:55:44.135Z,822
2017-08-26T09:56:51.921Z,821
2017-08-26T09:57:59.411Z,822
2017-08-26T09:59:06.898Z,823
2017-08-26T10:00:14.390Z,822
2017-08-26T10:01:21.548Z,821
2017-08-26T10:02:29.332Z,823
2017-08-26T10:03:36.817Z,823
2017-08-26T10:04:44.311Z,823
2017-08-26T10:05:51.799Z,823
2017-08-26T10:06:59.285Z,826
2017-08-26T10:08:07.068Z,825
2017-08-26T10:09:14.549Z,823
2017-08-26T10:10:22.034Z,820
2017-08-26T10:11:29.532Z,818
2017-08-26T10:12:37.025Z,819
2017-08-26T10:13:44.483Z,821
2017-08-26T10:14:51.984Z,821
2017-08-26T10:15:59.468Z,820
2017-08-26T10:17:06.961Z,821
2017-08-26T10:18:14.118Z,820
2017-08-26T10:19:21.912Z,819
2017-08-26T10:20:29.400Z,820
2017-08-26T10:21:36.899Z,819
2017-08-26T10:22:44.390Z,815
2017-08-26T10:23:51.878Z,815
2017-08-26T10:24:59.662Z,814
2017-08-26T10:26:06.820Z,813
2017-08-26T10:27:14.306Z,813
2017-08-26T10:28:21.464Z,814
2017-08-26T10:29:28.958Z,816
2017-08-26T10:30:36.986Z,817
2017-08-26T10:31:44.472Z,816
2017-08-26T10:32:51.620Z,817
2017-08-26T10:33:58.782Z,818
2017-08-26T10:35:06.269Z,818
2017-08-26T10:36:14.054Z,815
2017-08-26T10:37:21.534Z,813
2017-08-26T10:38:29.026Z,818
2017-08-26T10:39:36.516Z,817
2017-08-26T10:40:43.678Z,815
2017-08-26T10:41:51.469Z,815
2017-08-26T10:42:58.616Z,816
2017-08-26T10:44:05.438Z,817
2017-08-26T10:45:12.929Z,815
2017-08-26T10:46:20.083Z,813
2017-08-26T10:47:27.873Z,811
2017-08-26T10:48:35.030Z,810
2017-08-26T10:49:42.520Z,812
2017-08-26T10:50:50.009Z,813
2017-08-26T10:51:57.518Z,812
2017-08-26T10:53:05.306Z,812
2017-08-26T10:54:12.794Z,810
2017-08-26T10:55:20.280Z,814
2017-08-26T10:56:27.773Z,813
2017-08-26T10:57:35.261Z,812
2017-08-26T10:58:43.052Z,806
2017-08-26T10:59:50.547Z,805
2017-08-26T11:00:58.032Z,806
2017-08-26T11:02:05.516Z,808
2017-08-26T11:03:12.690Z,811
2017-08-26T11:04:20.482Z,816
2017-08-26T11:05:27.969Z,817
2017-08-26T11:06:35.470Z,816
2017-08-26T11:07:42.957Z,816
2017-08-26T11:08:50.116Z,814
2017-08-26T11:09:57.900Z,812
2017-08-26T11:11:05.397Z,813
2017-08-26T11:12:12.556Z,813
2017-08-26T11:13:20.038Z,813
2017-08-26T11:14:27.533Z,810
2017-08-26T11:15:35.320Z,807
2017-08-26T11:16:42.809Z,811
2017-08-26T11:17:50.302Z,809
2017-08-26T11:18:57.792Z,810
2017-08-26T11:20:05.285Z,812
2017-08-26T11:21:13.082Z,815
2017-08-26T11:22:20.574Z,818
2017-08-26T11:23:27.751Z,820
2017-08-26T11:24:35.240Z,822
2017-08-26T11:25:42.758Z,822
2017-08-26T11:26:50.195Z,823
2017-08-26T11:27:57.683Z,823
2017-08-26T11:29:05.183Z,819
2017-08-26T11:30:12.674Z,821
2017-08-26T11:31:19.828Z,819
2017-08-26T11:32:27.615Z,821
2017-08-26T11:33:35.108Z,821
2017-08-26T11:34:42.603Z,820
2017-08-26T11:35:49.758Z,820
2017-08-26T11:36:57.252Z,818
2017-08-26T11:38:04.700Z,817
2017-08-26T11:39:11.865Z,819
2017-08-26T11:40:19.355Z,820
2017-08-26T11:41:26.841Z,822
2017-08-26T11:42:34.001Z,821
2017-08-26T11:43:56.373Z,822
2017-08-26T11:45:03.865Z,819
2017-08-26T11:46:11.355Z,815
2017-08-26T11:47:18.848Z,814
2017-08-26T11:48:26.345Z,814
2017-08-26T11:49:34.152Z,810
2017-08-26T11:50:41.657Z,808
2017-08-26T11:51:49.146Z,813
2017-08-26T11:52:56.298Z,813
2017-08-26T11:54:03.450Z,817
2017-08-26T11:55:11.239Z,822
2017-08-26T11:56:18.728Z,823
2017-08-26T11:57:26.219Z,822
2017-08-26T11:58:33.376Z,820
2017-08-26T11:59:40.863Z,820
2017-08-26T12:00:48.649Z,821
2017-08-26T12:01:56.139Z,820
2017-08-26T12:03:03.633Z,821
2017-08-26T12:04:11.117Z,820
2017-08-26T12:05:18.600Z,819
2017-08-26T12:06:25.725Z,817
2017-08-26T12:07:33.218Z,821
2017-08-26T12:08:40.712Z,821
2017-08-26T12:09:48.206Z,820
2017-08-26T12:10:55.680Z,819
2017-08-26T12:12:03.145Z,823
2017-08-26T12:13:10.644Z,822
2017-08-26T12:14:17.799Z,820
2017-08-26T12:15:25.286Z,814
2017-08-26T12:16:32.783Z,816
2017-08-26T12:17:40.586Z,822
2017-08-26T12:18:48.080Z,825
2017-08-26T12:19:55.567Z,822
2017-08-26T12:21:03.060Z,825
2017-08-26T12:22:10.556Z,825
2017-08-26T12:23:18.345Z,826
2017-08-26T12:24:25.827Z,827
2017-08-26T12:25:33.319Z,827
2017-08-26T12:26:40.816Z,825
2017-08-26T12:27:48.306Z,825
2017-08-26T12:28:56.112Z,826
2017-08-26T12:30:03.601Z,825
2017-08-26T12:31:11.092Z,825
2017-08-26T12:32:18.573Z,824
2017-08-26T12:33:25.734Z,823
2017-08-26T12:34:33.523Z,824
2017-08-26T12:35:41.029Z,824
2017-08-26T12:36:48.175Z,821
2017-08-26T12:37:55.667Z,820
2017-08-26T12:39:03.157Z,823
2017-08-26T12:40:10.946Z,823
2017-08-26T12:41:18.439Z,822
2017-08-26T12:42:25.946Z,823
2017-08-26T12:43:33.114Z,821
2017-08-26T12:44:40.272Z,819
2017-08-26T12:45:48.061Z,825
2017-08-26T12:46:55.574Z,825
2017-08-26T12:48:03.066Z,826
2017-08-26T12:49:10.558Z,819
2017-08-26T12:50:18.049Z,817
2017-08-26T12:51:25.845Z,819
2017-08-26T12:52:33.327Z,822
2017-08-26T12:53:40.825Z,825
2017-08-26T12:54:48.339Z,822
2017-08-26T12:55:55.849Z,822
2017-08-26T12:57:03.642Z,825
2017-08-26T12:58:11.136Z,827
2017-08-26T12:59:18.636Z,830
2017-08-26T13:00:26.124Z,830
2017-08-26T13:01:33.617Z,823
2017-08-26T13:02:41.406Z,823
2017-08-26T13:03:48.569Z,828
2017-08-26T13:04:56.058Z,834
2017-08-26T13:06:03.576Z,835
2017-08-26T13:07:11.061Z,835
2017-08-26T13:08:18.852Z,838
2017-08-26T13:09:26.349Z,833
2017-08-26T13:10:33.840Z,832
2017-08-26T13:11:42.346Z,830
2017-08-26T13:12:49.832Z,829
2017-08-26T13:13:57.619Z,828
2017-08-26T13:15:05.111Z,825
2017-08-26T13:16:12.618Z,823
2017-08-26T13:17:20.123Z,822
2017-08-26T13:18:27.641Z,828
2017-08-26T13:19:35.429Z,835
2017-08-26T13:20:42.919Z,838
2017-08-26T13:21:50.079Z,839
2017-08-26T13:22:57.576Z,839
2017-08-26T13:24:05.065Z,841
2017-08-26T13:25:12.874Z,834
2017-08-26T13:26:20.366Z,827
2017-08-26T13:27:27.852Z,819
2017-08-26T13:28:35.350Z,822
2017-08-26T13:29:42.834Z,830
2017-08-26T13:30:50.623Z,829
2017-08-26T13:31:58.116Z,828
2017-08-26T13:33:05.611Z,827
2017-08-26T13:34:13.144Z,822
2017-08-26T13:35:20.644Z,818
2017-08-26T13:36:28.433Z,819
2017-08-26T13:37:35.593Z,820
2017-08-26T13:38:42.791Z,821
2017-08-26T13:39:49.956Z,820
2017-08-26T13:40:57.445Z,824
2017-08-26T13:42:05.245Z,837
2017-08-26T13:43:12.736Z,840
2017-08-26T13:44:20.224Z,841
2017-08-26T13:45:27.720Z,841
2017-08-26T13:46:35.208Z,842
2017-08-26T13:47:43.001Z,836
2017-08-26T13:48:50.490Z,828
2017-08-26T13:49:57.988Z,835
2017-08-26T13:51:05.483Z,841
2017-08-26T13:52:12.968Z,842
2017-08-26T13:53:20.461Z,838
2017-08-26T13:54:27.948Z,841
2017-08-26T13:55:35.444Z,843
2017-08-26T13:56:42.905Z,835
2017-08-26T13:57:50.398Z,830
2017-08-26T13:58:57.891Z,828
2017-08-26T14:00:05.380Z,828
2017-08-26T14:01:12.869Z,840
2017-08-26T14:02:20.707Z,836
2017-08-26T14:03:27.862Z,840
2017-08-26T14:04:35.357Z,834
2017-08-26T14:05:42.848Z,829
2017-08-26T14:06:50.336Z,824
2017-08-26T14:07:58.172Z,823
2017-08-26T14:09:05.327Z,832
2017-08-26T14:10:12.831Z,828
2017-08-26T14:11:20.353Z,828
2017-08-26T14:12:27.835Z,826
2017-08-26T14:13:35.334Z,826
2017-08-26T14:14:42.826Z,828
2017-08-26T14:15:50.318Z,827
2017-08-26T14:16:57.809Z,828
2017-08-26T14:18:04.965Z,828
2017-08-26T14:19:12.806Z,827
2017-08-26T14:20:19.959Z,825
2017-08-26T14:21:27.458Z,825
2017-08-26T14:22:34.961Z,831
2017-08-26T14:23:42.472Z,831
2017-08-26T14:24:49.987Z,830
2017-08-26T14:25:57.470Z,828
2017-08-26T14:27:04.956Z,831
2017-08-26T14:28:12.118Z,829
2017-08-26T14:29:19.611Z,831
2017-08-26T14:30:27.108Z,830
2017-08-26T14:31:34.832Z,829
2017-08-26T14:32:42.336Z,829
2017-08-26T14:33:49.822Z,827
2017-08-26T14:34:57.316Z,829
2017-08-26T14:36:04.829Z,830
2017-08-26T14:37:11.993Z,831
2017-08-26T14:38:19.480Z,831
2017-08-26T14:39:26.966Z,831
2017-08-26T14:40:34.134Z,832
2017-08-26T14:41:41.980Z,840
2017-08-26T14:42:49.470Z,845
2017-08-26T14:43:56.633Z,843
2017-08-26T14:45:03.457Z,837
2017-08-26T14:46:10.946Z,832
2017-08-26T14:47:18.739Z,833
2017-08-26T14:48:25.907Z,835
2017-08-26T14:49:33.395Z,834
2017-08-26T14:50:40.887Z,832
2017-08-26T14:51:48.377Z,833
2017-08-26T14:52:55.865Z,835
2017-08-26T14:54:03.357Z,836
2017-08-26T14:55:10.850Z,835
2017-08-26T14:56:18.336Z,837
2017-08-26T14:57:25.499Z,834
2017-08-26T14:58:33.336Z,834
2017-08-26T14:59:40.848Z,833
2017-08-26T15:00:48.571Z,835
2017-08-26T15:01:56.052Z,836
2017-08-26T15:03:03.217Z,838
2017-08-26T15:04:11.067Z,835
2017-08-26T15:05:18.551Z,833
2017-08-26T15:06:26.043Z,833
2017-08-26T15:07:33.531Z,834
2017-08-26T15:08:41.034Z,836
2017-08-26T15:09:48.484Z,835
2017-08-26T15:10:55.978Z,838
2017-08-26T15:12:03.474Z,839
2017-08-26T15:13:10.966Z,839
2017-08-26T15:14:18.466Z,841
2017-08-26T15:15:26.258Z,839
2017-08-26T15:16:33.419Z,839
2017-08-26T15:17:40.907Z,839
2017-08-26T15:18:48.393Z,839
2017-08-26T15:19:55.881Z,839
2017-08-26T15:21:03.679Z,839
2017-08-26T15:22:11.169Z,837
2017-08-26T15:23:18.669Z,840
2017-08-26T15:24:26.163Z,840
2017-08-26T15:25:33.349Z,841
2017-08-26T15:26:41.175Z,839
2017-08-26T15:27:48.661Z,839
2017-08-26T15:28:56.158Z,841
2017-08-26T15:30:03.652Z,843